sensor_id;sensor_type;location;lat;lon;timestamp;P1;durP1;ratioP1;P2;durP2;ratioP2
59766;SDS011;46248;58.364;25.582;2023-05-10T00:02:02;11.60;;;4.53;;
59766;SDS011;46248;58.364;25.582;2023-05-10T00:05:28;11.13;;;5.35;;
59766;SDS011;46248;58.364;25.582;2023-05-10T00:08:51;11.43;;;4.75;;
59766;SDS011;46248;58.364;25.582;2023-05-10T00:12:15;9.50;;;5.32;;
59766;SDS011;46248;58.364;25.582;2023-05-10T00:15:37;9.32;;;4.47;;
59766;SDS011;46248;58.364;25.582;2023-05-10T00:19:00;7.97;;;4.70;;
59766;SDS011;46248;58.364;25.582;2023-05-10T00:22:23;7.45;;;4.80;;
59766;SDS011;46248;58.364;25.582;2023-05-10T00:25:45;8.43;;;5.30;;
59766;SDS011;46248;58.364;25.582;2023-05-10T00:29:09;7.97;;;4.47;;
59766;SDS011;46248;58.364;25.582;2023-05-10T00:32:32;6.93;;;4.32;;
59766;SDS011;46248;58.364;25.582;2023-05-10T00:35:55;11.45;;;4.85;;
59766;SDS011;46248;58.364;25.582;2023-05-10T00:39:18;9.52;;;5.00;;
59766;SDS011;46248;58.364;25.582;2023-05-10T00:42:40;9.02;;;4.85;;
59766;SDS011;46248;58.364;25.582;2023-05-10T00:46:05;9.23;;;4.38;;
59766;SDS011;46248;58.364;25.582;2023-05-10T00:49:28;8.50;;;4.72;;
59766;SDS011;46248;58.364;25.582;2023-05-10T00:52:51;8.32;;;4.78;;
59766;SDS011;46248;58.364;25.582;2023-05-10T00:56:14;7.63;;;4.15;;
59766;SDS011;46248;58.364;25.582;2023-05-10T00:59:38;6.03;;;4.63;;
59766;SDS011;46248;58.364;25.582;2023-05-10T01:03:03;10.80;;;4.90;;
59766;SDS011;46248;58.364;25.582;2023-05-10T01:06:26;8.32;;;4.30;;
59766;SDS011;46248;58.364;25.582;2023-05-10T01:09:49;7.28;;;4.32;;
59766;SDS011;46248;58.364;25.582;2023-05-10T01:13:12;8.60;;;4.40;;
59766;SDS011;46248;58.364;25.582;2023-05-10T01:16:36;7.90;;;4.80;;
59766;SDS011;46248;58.364;25.582;2023-05-10T01:20:01;7.63;;;3.92;;
59766;SDS011;46248;58.364;25.582;2023-05-10T01:27:47;11.85;;;5.38;;
59766;SDS011;46248;58.364;25.582;2023-05-10T01:31:33;9.93;;;5.00;;
59766;SDS011;46248;58.364;25.582;2023-05-10T01:35:32;8.80;;;5.22;;
59766;SDS011;46248;58.364;25.582;2023-05-10T01:39:02;13.05;;;6.68;;
59766;SDS011;46248;58.364;25.582;2023-05-10T01:42:35;12.48;;;5.43;;
59766;SDS011;46248;58.364;25.582;2023-05-10T01:49:34;12.40;;;5.25;;
59766;SDS011;46248;58.364;25.582;2023-05-10T01:56:24;7.35;;;4.63;;
59766;SDS011;46248;58.364;25.582;2023-05-10T01:59:50;5.70;;;3.45;;
59766;SDS011;46248;58.364;25.582;2023-05-10T02:03:14;8.60;;;4.10;;
59766;SDS011;46248;58.364;25.582;2023-05-10T02:06:42;10.35;;;4.50;;
59766;SDS011;46248;58.364;25.582;2023-05-10T02:10:07;9.80;;;4.78;;
59766;SDS011;46248;58.364;25.582;2023-05-10T02:13:32;10.02;;;3.97;;
59766;SDS011;46248;58.364;25.582;2023-05-10T02:17:00;10.52;;;4.50;;
59766;SDS011;46248;58.364;25.582;2023-05-10T02:20:26;5.97;;;3.58;;
59766;SDS011;46248;58.364;25.582;2023-05-10T02:23:50;10.38;;;3.83;;
59766;SDS011;46248;58.364;25.582;2023-05-10T02:27:15;7.78;;;4.10;;
59766;SDS011;46248;58.364;25.582;2023-05-10T02:30:41;5.70;;;3.47;;
59766;SDS011;46248;58.364;25.582;2023-05-10T02:34:05;7.75;;;3.80;;
59766;SDS011;46248;58.364;25.582;2023-05-10T02:37:29;8.27;;;4.00;;
59766;SDS011;46248;58.364;25.582;2023-05-10T02:40:55;5.28;;;3.20;;
59766;SDS011;46248;58.364;25.582;2023-05-10T02:44:19;5.70;;;3.40;;
59766;SDS011;46248;58.364;25.582;2023-05-10T02:47:42;9.48;;;4.10;;
59766;SDS011;46248;58.364;25.582;2023-05-10T02:51:05;6.47;;;3.45;;
59766;SDS011;46248;58.364;25.582;2023-05-10T02:54:31;9.57;;;3.75;;
59766;SDS011;46248;58.364;25.582;2023-05-10T02:58:02;6.13;;;3.22;;
59766;SDS011;46248;58.364;25.582;2023-05-10T03:01:25;5.50;;;3.30;;
59766;SDS011;46248;58.364;25.582;2023-05-10T03:04:48;8.38;;;3.67;;
59766;SDS011;46248;58.364;25.582;2023-05-10T03:08:11;7.43;;;3.28;;
59766;SDS011;46248;58.364;25.582;2023-05-10T03:11:37;6.03;;;2.60;;
59766;SDS011;46248;58.364;25.582;2023-05-10T03:15:19;7.25;;;2.83;;
59766;SDS011;46248;58.364;25.582;2023-05-10T03:18:47;14.75;;;3.67;;
59766;SDS011;46248;58.364;25.582;2023-05-10T03:22:18;10.63;;;4.03;;
59766;SDS011;46248;58.364;25.582;2023-05-10T03:25:46;8.63;;;4.15;;
59766;SDS011;46248;58.364;25.582;2023-05-10T03:29:11;8.65;;;3.80;;
59766;SDS011;46248;58.364;25.582;2023-05-10T03:32:37;8.35;;;4.25;;
59766;SDS011;46248;58.364;25.582;2023-05-10T03:36:00;8.00;;;3.55;;
59766;SDS011;46248;58.364;25.582;2023-05-10T03:39:22;8.98;;;4.53;;
59766;SDS011;46248;58.364;25.582;2023-05-10T03:42:45;8.23;;;4.03;;
59766;SDS011;46248;58.364;25.582;2023-05-10T03:46:07;5.40;;;3.83;;
59766;SDS011;46248;58.364;25.582;2023-05-10T03:49:32;10.43;;;4.40;;
59766;SDS011;46248;58.364;25.582;2023-05-10T03:52:55;10.20;;;4.57;;
59766;SDS011;46248;58.364;25.582;2023-05-10T03:56:18;12.48;;;5.00;;
59766;SDS011;46248;58.364;25.582;2023-05-10T03:59:41;9.57;;;4.60;;
59766;SDS011;46248;58.364;25.582;2023-05-10T04:03:07;10.38;;;4.93;;
59766;SDS011;46248;58.364;25.582;2023-05-10T04:06:31;9.57;;;3.88;;
59766;SDS011;46248;58.364;25.582;2023-05-10T04:09:57;15.10;;;5.68;;
59766;SDS011;46248;58.364;25.582;2023-05-10T04:13:20;10.57;;;4.97;;
59766;SDS011;46248;58.364;25.582;2023-05-10T04:16:43;12.50;;;5.00;;
59766;SDS011;46248;58.364;25.582;2023-05-10T04:20:07;14.32;;;5.35;;
59766;SDS011;46248;58.364;25.582;2023-05-10T04:23:32;14.43;;;7.22;;
59766;SDS011;46248;58.364;25.582;2023-05-10T04:26:54;13.55;;;4.18;;
59766;SDS011;46248;58.364;25.582;2023-05-10T04:30:17;13.48;;;5.35;;
59766;SDS011;46248;58.364;25.582;2023-05-10T04:33:41;11.70;;;5.03;;
59766;SDS011;46248;58.364;25.582;2023-05-10T04:37:04;13.35;;;4.32;;
59766;SDS011;46248;58.364;25.582;2023-05-10T04:40:29;12.38;;;5.47;;
59766;SDS011;46248;58.364;25.582;2023-05-10T04:43:51;19.90;;;7.07;;
59766;SDS011;46248;58.364;25.582;2023-05-10T04:47:14;16.63;;;5.70;;
59766;SDS011;46248;58.364;25.582;2023-05-10T04:50:38;18.63;;;6.82;;
59766;SDS011;46248;58.364;25.582;2023-05-10T04:54:01;17.88;;;5.78;;
59766;SDS011;46248;58.364;25.582;2023-05-10T04:57:27;24.50;;;6.85;;
59766;SDS011;46248;58.364;25.582;2023-05-10T05:00:50;17.63;;;5.68;;
59766;SDS011;46248;58.364;25.582;2023-05-10T05:04:12;15.23;;;6.38;;
59766;SDS011;46248;58.364;25.582;2023-05-10T05:07:35;12.10;;;5.20;;
59766;SDS011;46248;58.364;25.582;2023-05-10T05:10:58;11.27;;;4.20;;
59766;SDS011;46248;58.364;25.582;2023-05-10T05:14:22;7.53;;;3.55;;
59766;SDS011;46248;58.364;25.582;2023-05-10T05:17:45;6.40;;;3.38;;
59766;SDS011;46248;58.364;25.582;2023-05-10T05:21:15;5.68;;;2.40;;
59766;SDS011;46248;58.364;25.582;2023-05-10T05:24:38;4.95;;;2.38;;
59766;SDS011;46248;58.364;25.582;2023-05-10T05:28:01;1.65;;;1.55;;
59766;SDS011;46248;58.364;25.582;2023-05-10T05:31:25;4.78;;;2.20;;
59766;SDS011;46248;58.364;25.582;2023-05-10T05:34:50;4.90;;;2.75;;
59766;SDS011;46248;58.364;25.582;2023-05-10T05:38:13;3.83;;;2.28;;
59766;SDS011;46248;58.364;25.582;2023-05-10T05:41:35;5.88;;;2.58;;
59766;SDS011;46248;58.364;25.582;2023-05-10T05:44:58;2.80;;;2.15;;
59766;SDS011;46248;58.364;25.582;2023-05-10T05:48:22;4.55;;;2.40;;
59766;SDS011;46248;58.364;25.582;2023-05-10T05:51:45;4.00;;;2.20;;
59766;SDS011;46248;58.364;25.582;2023-05-10T05:55:10;4.85;;;2.80;;
59766;SDS011;46248;58.364;25.582;2023-05-10T05:58:33;5.05;;;2.72;;
59766;SDS011;46248;58.364;25.582;2023-05-10T06:01:55;4.40;;;1.98;;
59766;SDS011;46248;58.364;25.582;2023-05-10T06:05:20;4.13;;;2.13;;
59766;SDS011;46248;58.364;25.582;2023-05-10T06:08:43;2.72;;;1.80;;
59766;SDS011;46248;58.364;25.582;2023-05-10T06:12:06;4.07;;;2.17;;
59766;SDS011;46248;58.364;25.582;2023-05-10T06:15:29;4.65;;;2.33;;
59766;SDS011;46248;58.364;25.582;2023-05-10T06:18:53;3.53;;;2.05;;
59766;SDS011;46248;58.364;25.582;2023-05-10T06:22:18;2.70;;;2.45;;
59766;SDS011;46248;58.364;25.582;2023-05-10T06:25:40;8.23;;;2.55;;
59766;SDS011;46248;58.364;25.582;2023-05-10T06:29:03;3.10;;;2.20;;
59766;SDS011;46248;58.364;25.582;2023-05-10T06:32:26;3.35;;;1.98;;
59766;SDS011;46248;58.364;25.582;2023-05-10T06:35:50;2.72;;;2.17;;
59766;SDS011;46248;58.364;25.582;2023-05-10T06:39:14;2.92;;;1.98;;
59766;SDS011;46248;58.364;25.582;2023-05-10T06:42:37;4.65;;;2.67;;
59766;SDS011;46248;58.364;25.582;2023-05-10T06:46:00;8.05;;;2.08;;
59766;SDS011;46248;58.364;25.582;2023-05-10T06:49:23;4.68;;;2.50;;
59766;SDS011;46248;58.364;25.582;2023-05-10T06:52:46;3.65;;;2.13;;
59766;SDS011;46248;58.364;25.582;2023-05-10T06:56:13;3.88;;;1.73;;
59766;SDS011;46248;58.364;25.582;2023-05-10T06:59:36;6.15;;;2.38;;
59766;SDS011;46248;58.364;25.582;2023-05-10T07:02:59;7.88;;;2.95;;
59766;SDS011;46248;58.364;25.582;2023-05-10T07:06:23;10.30;;;2.83;;
59766;SDS011;46248;58.364;25.582;2023-05-10T07:09:53;5.78;;;2.30;;
59766;SDS011;46248;58.364;25.582;2023-05-10T07:13:18;4.63;;;1.75;;
59766;SDS011;46248;58.364;25.582;2023-05-10T07:16:41;2.28;;;1.63;;
59766;SDS011;46248;58.364;25.582;2023-05-10T07:20:05;35.30;;;7.93;;
59766;SDS011;46248;58.364;25.582;2023-05-10T07:23:28;4.20;;;1.90;;
59766;SDS011;46248;58.364;25.582;2023-05-10T07:26:54;61.70;;;14.63;;
59766;SDS011;46248;58.364;25.582;2023-05-10T07:30:18;4.18;;;2.03;;
59766;SDS011;46248;58.364;25.582;2023-05-10T07:33:42;3.30;;;1.77;;
59766;SDS011;46248;58.364;25.582;2023-05-10T07:37:04;7.22;;;2.10;;
59766;SDS011;46248;58.364;25.582;2023-05-10T07:40:30;5.32;;;2.28;;
59766;SDS011;46248;58.364;25.582;2023-05-10T07:43:53;6.30;;;2.70;;
59766;SDS011;46248;58.364;25.582;2023-05-10T07:47:17;4.28;;;2.58;;
59766;SDS011;46248;58.364;25.582;2023-05-10T07:50:40;5.35;;;2.20;;
59766;SDS011;46248;58.364;25.582;2023-05-10T07:54:02;2.05;;;1.60;;
59766;SDS011;46248;58.364;25.582;2023-05-10T07:57:25;3.25;;;2.05;;
59766;SDS011;46248;58.364;25.582;2023-05-10T08:00:48;5.38;;;2.42;;
59766;SDS011;46248;58.364;25.582;2023-05-10T08:04:12;3.20;;;2.15;;
59766;SDS011;46248;58.364;25.582;2023-05-10T08:07:35;5.03;;;1.98;;
59766;SDS011;46248;58.364;25.582;2023-05-10T08:10:59;4.30;;;2.00;;
59766;SDS011;46248;58.364;25.582;2023-05-10T08:14:22;4.63;;;3.20;;
59766;SDS011;46248;58.364;25.582;2023-05-10T08:17:48;5.38;;;2.33;;
59766;SDS011;46248;58.364;25.582;2023-05-10T08:21:12;6.20;;;1.90;;
59766;SDS011;46248;58.364;25.582;2023-05-10T08:24:35;5.07;;;2.47;;
59766;SDS011;46248;58.364;25.582;2023-05-10T08:27:59;3.97;;;1.70;;
59766;SDS011;46248;58.364;25.582;2023-05-10T08:31:21;2.25;;;2.08;;
59766;SDS011;46248;58.364;25.582;2023-05-10T08:34:44;2.65;;;2.13;;
59766;SDS011;46248;58.364;25.582;2023-05-10T08:38:08;3.47;;;1.60;;
59766;SDS011;46248;58.364;25.582;2023-05-10T08:41:31;7.25;;;1.92;;
59766;SDS011;46248;58.364;25.582;2023-05-10T08:44:57;3.25;;;1.98;;
59766;SDS011;46248;58.364;25.582;2023-05-10T08:48:22;5.45;;;2.20;;
59766;SDS011;46248;58.364;25.582;2023-05-10T08:51:51;5.55;;;2.20;;
59766;SDS011;46248;58.364;25.582;2023-05-10T08:55:18;2.88;;;2.25;;
59766;SDS011;46248;58.364;25.582;2023-05-10T08:58:41;4.22;;;2.20;;
59766;SDS011;46248;58.364;25.582;2023-05-10T09:02:04;4.53;;;3.20;;
59766;SDS011;46248;58.364;25.582;2023-05-10T09:05:28;6.38;;;2.53;;
59766;SDS011;46248;58.364;25.582;2023-05-10T09:08:51;3.97;;;1.80;;
59766;SDS011;46248;58.364;25.582;2023-05-10T09:12:15;3.60;;;2.45;;
59766;SDS011;46248;58.364;25.582;2023-05-10T09:15:38;5.57;;;2.25;;
59766;SDS011;46248;58.364;25.582;2023-05-10T09:19:00;2.50;;;1.85;;
59766;SDS011;46248;58.364;25.582;2023-05-10T09:22:24;4.85;;;3.20;;
59766;SDS011;46248;58.364;25.582;2023-05-10T09:25:46;4.72;;;2.55;;
59766;SDS011;46248;58.364;25.582;2023-05-10T09:29:11;4.68;;;2.85;;
59766;SDS011;46248;58.364;25.582;2023-05-10T09:32:37;2.65;;;1.70;;
59766;SDS011;46248;58.364;25.582;2023-05-10T09:36:06;4.78;;;2.65;;
59766;SDS011;46248;58.364;25.582;2023-05-10T09:39:32;4.43;;;3.23;;
59766;SDS011;46248;58.364;25.582;2023-05-10T09:42:56;5.20;;;2.47;;
59766;SDS011;46248;58.364;25.582;2023-05-10T09:46:23;3.13;;;1.80;;
59766;SDS011;46248;58.364;25.582;2023-05-10T09:49:49;6.45;;;2.63;;
59766;SDS011;46248;58.364;25.582;2023-05-10T09:53:14;6.25;;;2.90;;
59766;SDS011;46248;58.364;25.582;2023-05-10T09:56:37;6.40;;;2.05;;
59766;SDS011;46248;58.364;25.582;2023-05-10T10:00:00;7.35;;;3.63;;
59766;SDS011;46248;58.364;25.582;2023-05-10T10:03:27;4.18;;;2.67;;
59766;SDS011;46248;58.364;25.582;2023-05-10T10:07:00;4.95;;;2.22;;
59766;SDS011;46248;58.364;25.582;2023-05-10T10:10:33;6.15;;;1.50;;
59766;SDS011;46248;58.364;25.582;2023-05-10T10:13:56;5.30;;;1.90;;
59766;SDS011;46248;58.364;25.582;2023-05-10T10:17:19;3.60;;;2.22;;
59766;SDS011;46248;58.364;25.582;2023-05-10T10:20:44;3.92;;;2.38;;
59766;SDS011;46248;58.364;25.582;2023-05-10T10:24:08;4.10;;;1.98;;
59766;SDS011;46248;58.364;25.582;2023-05-10T10:27:33;6.35;;;2.33;;
59766;SDS011;46248;58.364;25.582;2023-05-10T10:31:10;2.65;;;1.80;;
59766;SDS011;46248;58.364;25.582;2023-05-10T10:34:39;3.45;;;1.90;;
59766;SDS011;46248;58.364;25.582;2023-05-10T10:38:04;4.03;;;2.05;;
59766;SDS011;46248;58.364;25.582;2023-05-10T10:41:31;2.70;;;1.58;;
59766;SDS011;46248;58.364;25.582;2023-05-10T10:45:00;2.95;;;1.95;;
59766;SDS011;46248;58.364;25.582;2023-05-10T10:48:35;2.60;;;2.22;;
59766;SDS011;46248;58.364;25.582;2023-05-10T10:52:13;4.53;;;2.35;;
59766;SDS011;46248;58.364;25.582;2023-05-10T10:55:51;4.70;;;2.33;;
59766;SDS011;46248;58.364;25.582;2023-05-10T10:59:28;8.88;;;3.13;;
59766;SDS011;46248;58.364;25.582;2023-05-10T11:02:51;2.20;;;1.80;;
59766;SDS011;46248;58.364;25.582;2023-05-10T11:06:16;3.13;;;2.13;;
59766;SDS011;46248;58.364;25.582;2023-05-10T11:09:52;3.38;;;1.90;;
59766;SDS011;46248;58.364;25.582;2023-05-10T11:13:21;5.20;;;2.40;;
59766;SDS011;46248;58.364;25.582;2023-05-10T11:16:50;2.45;;;1.45;;
59766;SDS011;46248;58.364;25.582;2023-05-10T11:20:14;3.30;;;2.03;;
59766;SDS011;46248;58.364;25.582;2023-05-10T11:23:49;3.42;;;2.20;;
59766;SDS011;46248;58.364;25.582;2023-05-10T11:27:16;3.05;;;2.30;;
59766;SDS011;46248;58.364;25.582;2023-05-10T11:30:43;6.38;;;2.63;;
59766;SDS011;46248;58.364;25.582;2023-05-10T11:34:06;3.53;;;2.40;;
59766;SDS011;46248;58.364;25.582;2023-05-10T11:37:29;2.28;;;2.08;;
59766;SDS011;46248;58.364;25.582;2023-05-10T11:40:55;3.60;;;2.50;;
59766;SDS011;46248;58.364;25.582;2023-05-10T11:44:18;2.30;;;1.90;;
59766;SDS011;46248;58.364;25.582;2023-05-10T11:47:43;5.28;;;2.60;;
59766;SDS011;46248;58.364;25.582;2023-05-10T11:51:06;5.40;;;2.88;;
59766;SDS011;46248;58.364;25.582;2023-05-10T11:54:29;4.22;;;2.28;;
59766;SDS011;46248;58.364;25.582;2023-05-10T11:57:55;4.47;;;2.13;;
59766;SDS011;46248;58.364;25.582;2023-05-10T12:01:23;5.83;;;2.30;;
59766;SDS011;46248;58.364;25.582;2023-05-10T12:04:48;2.95;;;2.05;;
59766;SDS011;46248;58.364;25.582;2023-05-10T12:08:13;3.63;;;2.35;;
59766;SDS011;46248;58.364;25.582;2023-05-10T12:11:37;4.75;;;1.92;;
59766;SDS011;46248;58.364;25.582;2023-05-10T12:15:04;3.50;;;2.17;;
59766;SDS011;46248;58.364;25.582;2023-05-10T12:18:27;1.80;;;1.67;;
59766;SDS011;46248;58.364;25.582;2023-05-10T12:21:52;3.72;;;2.42;;
59766;SDS011;46248;58.364;25.582;2023-05-10T12:25:15;5.10;;;2.03;;
59766;SDS011;46248;58.364;25.582;2023-05-10T12:28:38;4.55;;;2.30;;
59766;SDS011;46248;58.364;25.582;2023-05-10T12:32:01;4.22;;;1.83;;
59766;SDS011;46248;58.364;25.582;2023-05-10T12:35:24;5.68;;;1.95;;
59766;SDS011;46248;58.364;25.582;2023-05-10T12:38:48;4.68;;;2.40;;
59766;SDS011;46248;58.364;25.582;2023-05-10T12:42:13;6.10;;;2.30;;
59766;SDS011;46248;58.364;25.582;2023-05-10T12:45:35;4.30;;;2.55;;
59766;SDS011;46248;58.364;25.582;2023-05-10T12:48:58;4.03;;;3.00;;
59766;SDS011;46248;58.364;25.582;2023-05-10T12:52:29;2.92;;;1.98;;
59766;SDS011;46248;58.364;25.582;2023-05-10T13:00:41;4.97;;;2.47;;
59766;SDS011;46248;58.364;25.582;2023-05-10T13:04:05;5.65;;;2.45;;
59766;SDS011;46248;58.364;25.582;2023-05-10T13:07:28;2.95;;;2.08;;
59766;SDS011;46248;58.364;25.582;2023-05-10T13:10:51;3.72;;;1.75;;
59766;SDS011;46248;58.364;25.582;2023-05-10T13:14:16;3.63;;;2.28;;
59766;SDS011;46248;58.364;25.582;2023-05-10T13:17:42;5.05;;;2.92;;
59766;SDS011;46248;58.364;25.582;2023-05-10T13:21:11;3.65;;;2.20;;
59766;SDS011;46248;58.364;25.582;2023-05-10T13:24:34;5.53;;;2.10;;
59766;SDS011;46248;58.364;25.582;2023-05-10T13:28:00;3.47;;;1.85;;
59766;SDS011;46248;58.364;25.582;2023-05-10T13:31:24;2.85;;;2.20;;
59766;SDS011;46248;58.364;25.582;2023-05-10T13:34:50;5.35;;;2.30;;
59766;SDS011;46248;58.364;25.582;2023-05-10T13:38:14;4.07;;;2.50;;
59766;SDS011;46248;58.364;25.582;2023-05-10T13:41:41;3.92;;;2.40;;
59766;SDS011;46248;58.364;25.582;2023-05-10T13:45:05;1.90;;;1.50;;
59766;SDS011;46248;58.364;25.582;2023-05-10T13:48:29;6.35;;;3.30;;
59766;SDS011;46248;58.364;25.582;2023-05-10T13:51:54;3.10;;;1.95;;
59766;SDS011;46248;58.364;25.582;2023-05-10T13:55:17;4.05;;;2.22;;
59766;SDS011;46248;58.364;25.582;2023-05-10T13:58:43;4.88;;;2.13;;
59766;SDS011;46248;58.364;25.582;2023-05-10T14:02:06;5.32;;;2.17;;
59766;SDS011;46248;58.364;25.582;2023-05-10T14:05:29;3.10;;;2.15;;
59766;SDS011;46248;58.364;25.582;2023-05-10T14:08:54;4.28;;;2.38;;
59766;SDS011;46248;58.364;25.582;2023-05-10T14:12:18;2.20;;;2.00;;
59766;SDS011;46248;58.364;25.582;2023-05-10T14:15:41;2.83;;;2.00;;
59766;SDS011;46248;58.364;25.582;2023-05-10T14:19:04;3.20;;;2.00;;
59766;SDS011;46248;58.364;25.582;2023-05-10T14:22:28;23.33;;;10.23;;
59766;SDS011;46248;58.364;25.582;2023-05-10T14:25:52;5.65;;;3.90;;
59766;SDS011;46248;58.364;25.582;2023-05-10T14:29:16;2.72;;;1.95;;
59766;SDS011;46248;58.364;25.582;2023-05-10T14:32:39;4.35;;;1.98;;
59766;SDS011;46248;58.364;25.582;2023-05-10T14:36:04;3.15;;;2.10;;
59766;SDS011;46248;58.364;25.582;2023-05-10T14:39:27;2.55;;;1.85;;
59766;SDS011;46248;58.364;25.582;2023-05-10T14:42:53;7.90;;;3.75;;
59766;SDS011;46248;58.364;25.582;2023-05-10T14:46:17;3.95;;;2.30;;
59766;SDS011;46248;58.364;25.582;2023-05-10T14:49:41;5.10;;;2.00;;
59766;SDS011;46248;58.364;25.582;2023-05-10T14:53:04;2.90;;;1.70;;
59766;SDS011;46248;58.364;25.582;2023-05-10T14:56:28;4.15;;;2.78;;
59766;SDS011;46248;58.364;25.582;2023-05-10T14:59:53;4.07;;;2.35;;
59766;SDS011;46248;58.364;25.582;2023-05-10T15:03:17;6.38;;;2.13;;
59766;SDS011;46248;58.364;25.582;2023-05-10T15:06:40;2.00;;;1.75;;
59766;SDS011;46248;58.364;25.582;2023-05-10T15:10:06;5.15;;;2.50;;
59766;SDS011;46248;58.364;25.582;2023-05-10T15:13:31;3.22;;;2.08;;
59766;SDS011;46248;58.364;25.582;2023-05-10T15:16:55;5.22;;;2.50;;
59766;SDS011;46248;58.364;25.582;2023-05-10T15:20:20;2.53;;;2.15;;
59766;SDS011;46248;58.364;25.582;2023-05-10T15:23:43;1.95;;;1.80;;
59766;SDS011;46248;58.364;25.582;2023-05-10T15:27:07;4.85;;;1.95;;
59766;SDS011;46248;58.364;25.582;2023-05-10T15:30:31;2.67;;;1.90;;
59766;SDS011;46248;58.364;25.582;2023-05-10T15:33:57;4.97;;;1.90;;
59766;SDS011;46248;58.364;25.582;2023-05-10T15:37:22;5.78;;;1.98;;
59766;SDS011;46248;58.364;25.582;2023-05-10T15:40:45;3.38;;;2.85;;
59766;SDS011;46248;58.364;25.582;2023-05-10T15:44:09;5.47;;;2.53;;
59766;SDS011;46248;58.364;25.582;2023-05-10T15:47:34;4.53;;;2.45;;
59766;SDS011;46248;58.364;25.582;2023-05-10T15:51:02;4.70;;;2.50;;
59766;SDS011;46248;58.364;25.582;2023-05-10T15:54:26;6.28;;;3.78;;
59766;SDS011;46248;58.364;25.582;2023-05-10T15:57:50;5.00;;;3.42;;
59766;SDS011;46248;58.364;25.582;2023-05-10T16:01:13;4.63;;;2.95;;
59766;SDS011;46248;58.364;25.582;2023-05-10T16:04:37;9.27;;;6.22;;
59766;SDS011;46248;58.364;25.582;2023-05-10T16:08:02;4.93;;;4.45;;
59766;SDS011;46248;58.364;25.582;2023-05-10T16:11:26;6.60;;;3.22;;
59766;SDS011;46248;58.364;25.582;2023-05-10T16:14:53;9.70;;;6.10;;
59766;SDS011;46248;58.364;25.582;2023-05-10T16:18:25;7.10;;;3.10;;
59766;SDS011;46248;58.364;25.582;2023-05-10T16:21:50;5.97;;;2.55;;
59766;SDS011;46248;58.364;25.582;2023-05-10T16:25:17;6.22;;;2.40;;
59766;SDS011;46248;58.364;25.582;2023-05-10T16:28:42;6.70;;;3.70;;
59766;SDS011;46248;58.364;25.582;2023-05-10T16:32:06;10.85;;;4.88;;
59766;SDS011;46248;58.364;25.582;2023-05-10T16:35:32;8.52;;;6.70;;
59766;SDS011;46248;58.364;25.582;2023-05-10T16:38:56;4.57;;;2.55;;
59766;SDS011;46248;58.364;25.582;2023-05-10T16:42:29;7.75;;;2.95;;
59766;SDS011;46248;58.364;25.582;2023-05-10T16:45:57;5.30;;;3.00;;
59766;SDS011;46248;58.364;25.582;2023-05-10T16:49:22;6.25;;;2.53;;
59766;SDS011;46248;58.364;25.582;2023-05-10T16:52:46;8.63;;;2.40;;
59766;SDS011;46248;58.364;25.582;2023-05-10T16:56:10;6.93;;;2.30;;
59766;SDS011;46248;58.364;25.582;2023-05-10T16:59:37;7.32;;;2.60;;
59766;SDS011;46248;58.364;25.582;2023-05-10T17:03:02;3.42;;;2.40;;
59766;SDS011;46248;58.364;25.582;2023-05-10T17:06:26;2.70;;;2.05;;
59766;SDS011;46248;58.364;25.582;2023-05-10T17:09:55;6.47;;;2.70;;
59766;SDS011;46248;58.364;25.582;2023-05-10T17:13:20;3.90;;;2.20;;
59766;SDS011;46248;58.364;25.582;2023-05-10T17:16:45;7.57;;;2.30;;
59766;SDS011;46248;58.364;25.582;2023-05-10T17:20:12;5.05;;;2.25;;
59766;SDS011;46248;58.364;25.582;2023-05-10T17:23:37;5.85;;;2.58;;
59766;SDS011;46248;58.364;25.582;2023-05-10T17:27:01;4.70;;;2.25;;
59766;SDS011;46248;58.364;25.582;2023-05-10T17:30:28;8.88;;;2.75;;
59766;SDS011;46248;58.364;25.582;2023-05-10T17:33:57;5.10;;;2.47;;
59766;SDS011;46248;58.364;25.582;2023-05-10T17:37:24;3.92;;;2.38;;
59766;SDS011;46248;58.364;25.582;2023-05-10T17:40:51;5.43;;;2.28;;
59766;SDS011;46248;58.364;25.582;2023-05-10T17:44:15;4.68;;;2.92;;
59766;SDS011;46248;58.364;25.582;2023-05-10T17:47:44;4.07;;;2.67;;
59766;SDS011;46248;58.364;25.582;2023-05-10T17:51:10;6.15;;;2.90;;
59766;SDS011;46248;58.364;25.582;2023-05-10T17:58:21;3.65;;;2.42;;
59766;SDS011;46248;58.364;25.582;2023-05-10T18:05:35;2.60;;;1.80;;
59766;SDS011;46248;58.364;25.582;2023-05-10T18:12:45;6.20;;;4.47;;
59766;SDS011;46248;58.364;25.582;2023-05-10T18:16:11;4.78;;;3.75;;
59766;SDS011;46248;58.364;25.582;2023-05-10T18:19:36;5.15;;;3.33;;
59766;SDS011;46248;58.364;25.582;2023-05-10T18:23:01;4.68;;;3.05;;
59766;SDS011;46248;58.364;25.582;2023-05-10T18:26:26;5.35;;;2.50;;
59766;SDS011;46248;58.364;25.582;2023-05-10T18:29:48;4.85;;;2.25;;
59766;SDS011;46248;58.364;25.582;2023-05-10T18:33:13;4.40;;;1.90;;
59766;SDS011;46248;58.364;25.582;2023-05-10T18:36:38;2.10;;;1.90;;
59766;SDS011;46248;58.364;25.582;2023-05-10T18:40:05;2.38;;;1.92;;
59766;SDS011;46248;58.364;25.582;2023-05-10T18:43:36;4.05;;;3.05;;
59766;SDS011;46248;58.364;25.582;2023-05-10T18:47:07;3.92;;;2.17;;
59766;SDS011;46248;58.364;25.582;2023-05-10T18:50:43;2.45;;;2.00;;
59766;SDS011;46248;58.364;25.582;2023-05-10T18:54:09;7.40;;;2.40;;
59766;SDS011;46248;58.364;25.582;2023-05-10T18:57:38;4.35;;;2.15;;
59766;SDS011;46248;58.364;25.582;2023-05-10T19:01:04;2.63;;;2.20;;
59766;SDS011;46248;58.364;25.582;2023-05-10T19:04:29;3.72;;;2.22;;
59766;SDS011;46248;58.364;25.582;2023-05-10T19:07:56;4.32;;;2.30;;
59766;SDS011;46248;58.364;25.582;2023-05-10T19:11:25;7.15;;;2.92;;
59766;SDS011;46248;58.364;25.582;2023-05-10T19:14:52;10.05;;;3.85;;
59766;SDS011;46248;58.364;25.582;2023-05-10T19:18:18;9.65;;;3.78;;
59766;SDS011;46248;58.364;25.582;2023-05-10T19:21:44;6.20;;;3.30;;
59766;SDS011;46248;58.364;25.582;2023-05-10T19:25:10;9.48;;;3.88;;
59766;SDS011;46248;58.364;25.582;2023-05-10T19:28:39;8.02;;;3.33;;
59766;SDS011;46248;58.364;25.582;2023-05-10T19:32:07;10.25;;;3.92;;
59766;SDS011;46248;58.364;25.582;2023-05-10T19:35:32;21.38;;;9.40;;
59766;SDS011;46248;58.364;25.582;2023-05-10T19:38:54;16.75;;;8.50;;
59766;SDS011;46248;58.364;25.582;2023-05-10T19:42:16;15.93;;;8.05;;
59766;SDS011;46248;58.364;25.582;2023-05-10T19:45:40;13.45;;;6.40;;
59766;SDS011;46248;58.364;25.582;2023-05-10T19:49:02;11.27;;;5.43;;
59766;SDS011;46248;58.364;25.582;2023-05-10T19:52:26;10.73;;;6.10;;
59766;SDS011;46248;58.364;25.582;2023-05-10T19:55:48;15.30;;;6.05;;
59766;SDS011;46248;58.364;25.582;2023-05-10T19:59:10;16.15;;;6.95;;
59766;SDS011;46248;58.364;25.582;2023-05-10T20:02:32;13.50;;;6.47;;
59766;SDS011;46248;58.364;25.582;2023-05-10T20:05:54;14.43;;;7.00;;
59766;SDS011;46248;58.364;25.582;2023-05-10T20:09:17;17.10;;;8.02;;
59766;SDS011;46248;58.364;25.582;2023-05-10T20:12:39;19.08;;;8.82;;
59766;SDS011;46248;58.364;25.582;2023-05-10T20:16:02;18.60;;;7.47;;
59766;SDS011;46248;58.364;25.582;2023-05-10T20:19:25;17.80;;;6.88;;
59766;SDS011;46248;58.364;25.582;2023-05-10T20:22:47;11.43;;;5.63;;
59766;SDS011;46248;58.364;25.582;2023-05-10T20:26:11;13.38;;;5.90;;
59766;SDS011;46248;58.364;25.582;2023-05-10T20:29:33;10.27;;;4.68;;
59766;SDS011;46248;58.364;25.582;2023-05-10T20:32:55;9.02;;;4.63;;
59766;SDS011;46248;58.364;25.582;2023-05-10T20:36:17;9.43;;;4.70;;
59766;SDS011;46248;58.364;25.582;2023-05-10T20:39:40;6.68;;;3.33;;
59766;SDS011;46248;58.364;25.582;2023-05-10T20:43:03;6.55;;;3.47;;